sensor_id;sensor_type;location;lat;lon;timestamp;P1;durP1;ratioP1;P2;durP2;ratioP2
67140;SDS011;54058;52.010;5.546;2022-10-31T00:01:16;9.52;;;5.65;;
67140;SDS011;54058;52.010;5.546;2022-10-31T00:03:44;13.05;;;5.75;;
67140;SDS011;54058;52.010;5.546;2022-10-31T00:06:10;15.88;;;6.15;;
67140;SDS011;54058;52.010;5.546;2022-10-31T00:08:36;15.65;;;6.13;;
67140;SDS011;54058;52.010;5.546;2022-10-31T00:11:01;11.60;;;5.25;;
67140;SDS011;54058;52.010;5.546;2022-10-31T00:13:27;14.40;;;6.40;;
67140;SDS011;54058;52.010;5.546;2022-10-31T00:15:53;11.73;;;5.88;;
67140;SDS011;54058;52.010;5.546;2022-10-31T00:18:19;14.05;;;6.00;;
67140;SDS011;54058;52.010;5.546;2022-10-31T00:20:44;12.50;;;6.28;;
67140;SDS011;54058;52.010;5.546;2022-10-31T00:23:10;13.82;;;5.45;;
67140;SDS011;54058;52.010;5.546;2022-10-31T00:25:37;13.18;;;5.75;;
67140;SDS011;54058;52.010;5.546;2022-10-31T00:28:04;9.02;;;5.72;;
67140;SDS011;54058;52.010;5.546;2022-10-31T00:30:31;14.85;;;6.00;;
67140;SDS011;54058;52.010;5.546;2022-10-31T00:32:57;9.82;;;5.45;;
67140;SDS011;54058;52.010;5.546;2022-10-31T00:35:23;15.23;;;5.95;;
67140;SDS011;54058;52.010;5.546;2022-10-31T00:37:49;10.23;;;5.78;;
67140;SDS011;54058;52.010;5.546;2022-10-31T00:40:16;9.25;;;6.00;;
67140;SDS011;54058;52.010;5.546;2022-10-31T00:42:41;11.95;;;5.72;;
67140;SDS011;54058;52.010;5.546;2022-10-31T00:45:08;9.65;;;5.65;;
67140;SDS011;54058;52.010;5.546;2022-10-31T00:47:34;15.27;;;5.95;;
67140;SDS011;54058;52.010;5.546;2022-10-31T00:50:00;10.98;;;5.55;;
67140;SDS011;54058;52.010;5.546;2022-10-31T00:52:25;14.50;;;5.72;;
67140;SDS011;54058;52.010;5.546;2022-10-31T00:54:54;13.18;;;5.55;;
67140;SDS011;54058;52.010;5.546;2022-10-31T00:57:20;9.95;;;5.15;;
67140;SDS011;54058;52.010;5.546;2022-10-31T00:59:45;11.52;;;4.90;;
67140;SDS011;54058;52.010;5.546;2022-10-31T01:02:11;11.23;;;5.22;;
67140;SDS011;54058;52.010;5.546;2022-10-31T01:04:36;13.13;;;5.05;;
67140;SDS011;54058;52.010;5.546;2022-10-31T01:07:02;9.95;;;5.10;;
67140;SDS011;54058;52.010;5.546;2022-10-31T01:09:27;7.90;;;4.38;;
67140;SDS011;54058;52.010;5.546;2022-10-31T01:11:53;12.25;;;4.95;;
67140;SDS011;54058;52.010;5.546;2022-10-31T01:14:19;9.88;;;4.25;;
67140;SDS011;54058;52.010;5.546;2022-10-31T01:16:44;8.18;;;4.60;;
67140;SDS011;54058;52.010;5.546;2022-10-31T01:19:10;8.93;;;5.05;;
67140;SDS011;54058;52.010;5.546;2022-10-31T01:21:35;12.32;;;5.78;;
67140;SDS011;54058;52.010;5.546;2022-10-31T01:24:01;8.15;;;4.82;;
67140;SDS011;54058;52.010;5.546;2022-10-31T01:26:28;7.30;;;4.70;;
67140;SDS011;54058;52.010;5.546;2022-10-31T01:28:57;9.73;;;5.55;;
67140;SDS011;54058;52.010;5.546;2022-10-31T01:31:26;6.15;;;4.57;;
67140;SDS011;54058;52.010;5.546;2022-10-31T01:33:57;11.88;;;5.53;;
67140;SDS011;54058;52.010;5.546;2022-10-31T01:36:30;9.10;;;5.80;;
67140;SDS011;54058;52.010;5.546;2022-10-31T01:38:59;13.20;;;5.70;;
67140;SDS011;54058;52.010;5.546;2022-10-31T01:41:31;9.88;;;5.85;;
67140;SDS011;54058;52.010;5.546;2022-10-31T01:44:00;13.13;;;6.32;;
67140;SDS011;54058;52.010;5.546;2022-10-31T01:46:35;8.57;;;5.47;;
67140;SDS011;54058;52.010;5.546;2022-10-31T01:49:05;15.32;;;5.65;;
67140;SDS011;54058;52.010;5.546;2022-10-31T01:51:38;10.02;;;5.18;;
67140;SDS011;54058;52.010;5.546;2022-10-31T01:54:08;10.77;;;5.63;;
67140;SDS011;54058;52.010;5.546;2022-10-31T01:56:38;15.35;;;6.15;;
67140;SDS011;54058;52.010;5.546;2022-10-31T01:59:07;9.95;;;6.00;;
67140;SDS011;54058;52.010;5.546;2022-10-31T02:01:36;8.23;;;6.57;;
67140;SDS011;54058;52.010;5.546;2022-10-31T02:04:03;9.43;;;6.20;;
67140;SDS011;54058;52.010;5.546;2022-10-31T02:06:33;11.75;;;6.50;;
67140;SDS011;54058;52.010;5.546;2022-10-31T02:09:04;12.88;;;6.18;;
67140;SDS011;54058;52.010;5.546;2022-10-31T02:11:30;11.35;;;6.78;;
67140;SDS011;54058;52.010;5.546;2022-10-31T02:13:58;9.02;;;5.80;;
67140;SDS011;54058;52.010;5.546;2022-10-31T02:16:25;16.40;;;6.70;;
67140;SDS011;54058;52.010;5.546;2022-10-31T02:18:51;11.18;;;6.25;;
67140;SDS011;54058;52.010;5.546;2022-10-31T02:23:58;11.65;;;5.95;;
67140;SDS011;54058;52.010;5.546;2022-10-31T02:26:45;8.40;;;5.25;;
67140;SDS011;54058;52.010;5.546;2022-10-31T02:31:46;15.82;;;6.00;;
67140;SDS011;54058;52.010;5.546;2022-10-31T02:42:46;17.63;;;6.75;;
67140;SDS011;54058;52.010;5.546;2022-10-31T02:48:03;8.32;;;4.95;;
67140;SDS011;54058;52.010;5.546;2022-10-31T02:50:37;10.63;;;5.65;;
67140;SDS011;54058;52.010;5.546;2022-10-31T02:53:06;10.43;;;5.68;;
67140;SDS011;54058;52.010;5.546;2022-10-31T02:58:02;15.77;;;6.13;;
67140;SDS011;54058;52.010;5.546;2022-10-31T03:00:38;11.23;;;5.28;;
67140;SDS011;54058;52.010;5.546;2022-10-31T03:03:14;12.75;;;5.78;;
67140;SDS011;54058;52.010;5.546;2022-10-31T03:08:41;11.88;;;5.97;;
67140;SDS011;54058;52.010;5.546;2022-10-31T03:11:11;12.25;;;7.20;;
67140;SDS011;54058;52.010;5.546;2022-10-31T03:13:51;15.55;;;6.32;;
67140;SDS011;54058;52.010;5.546;2022-10-31T03:16:50;10.73;;;6.47;;
67140;SDS011;54058;52.010;5.546;2022-10-31T03:19:26;9.32;;;6.38;;
67140;SDS011;54058;52.010;5.546;2022-10-31T03:22:10;13.18;;;6.68;;
67140;SDS011;54058;52.010;5.546;2022-10-31T03:24:47;10.80;;;6.75;;
67140;SDS011;54058;52.010;5.546;2022-10-31T03:27:14;8.90;;;6.65;;
67140;SDS011;54058;52.010;5.546;2022-10-31T03:29:43;11.00;;;7.13;;
67140;SDS011;54058;52.010;5.546;2022-10-31T03:32:15;13.00;;;6.38;;
67140;SDS011;54058;52.010;5.546;2022-10-31T03:34:45;11.57;;;6.30;;
67140;SDS011;54058;52.010;5.546;2022-10-31T03:37:13;11.15;;;6.72;;
67140;SDS011;54058;52.010;5.546;2022-10-31T03:39:42;16.00;;;5.95;;
67140;SDS011;54058;52.010;5.546;2022-10-31T03:42:11;9.18;;;6.55;;
67140;SDS011;54058;52.010;5.546;2022-10-31T03:44:43;9.70;;;5.95;;
67140;SDS011;54058;52.010;5.546;2022-10-31T03:47:13;9.85;;;6.25;;
67140;SDS011;54058;52.010;5.546;2022-10-31T03:49:39;9.75;;;6.15;;
67140;SDS011;54058;52.010;5.546;2022-10-31T04:00:04;9.93;;;5.80;;
67140;SDS011;54058;52.010;5.546;2022-10-31T04:02:33;11.02;;;6.10;;
67140;SDS011;54058;52.010;5.546;2022-10-31T04:05:02;15.57;;;6.85;;
67140;SDS011;54058;52.010;5.546;2022-10-31T04:07:30;9.10;;;6.22;;
67140;SDS011;54058;52.010;5.546;2022-10-31T04:10:00;13.23;;;5.70;;
67140;SDS011;54058;52.010;5.546;2022-10-31T04:12:29;11.52;;;6.07;;
67140;SDS011;54058;52.010;5.546;2022-10-31T04:14:57;11.07;;;6.28;;
67140;SDS011;54058;52.010;5.546;2022-10-31T04:17:24;15.25;;;6.55;;
67140;SDS011;54058;52.010;5.546;2022-10-31T04:19:54;11.52;;;6.43;;
67140;SDS011;54058;52.010;5.546;2022-10-31T04:22:20;9.40;;;6.32;;
67140;SDS011;54058;52.010;5.546;2022-10-31T04:24:45;20.60;;;6.18;;
67140;SDS011;54058;52.010;5.546;2022-10-31T04:27:11;17.15;;;6.38;;
67140;SDS011;54058;52.010;5.546;2022-10-31T04:29:36;10.40;;;6.47;;
67140;SDS011;54058;52.010;5.546;2022-10-31T04:32:02;9.45;;;5.82;;
67140;SDS011;54058;52.010;5.546;2022-10-31T04:34:27;12.68;;;5.75;;
67140;SDS011;54058;52.010;5.546;2022-10-31T04:36:53;10.90;;;6.20;;
67140;SDS011;54058;52.010;5.546;2022-10-31T04:39:21;14.13;;;7.28;;
67140;SDS011;54058;52.010;5.546;2022-10-31T04:41:47;15.27;;;6.70;;
67140;SDS011;54058;52.010;5.546;2022-10-31T04:44:12;13.48;;;7.32;;
67140;SDS011;54058;52.010;5.546;2022-10-31T04:46:38;34.53;;;8.38;;
67140;SDS011;54058;52.010;5.546;2022-10-31T04:49:03;23.73;;;8.38;;
67140;SDS011;54058;52.010;5.546;2022-10-31T04:51:29;24.38;;;8.18;;
67140;SDS011;54058;52.010;5.546;2022-10-31T04:53:57;35.13;;;9.48;;
67140;SDS011;54058;52.010;5.546;2022-10-31T04:56:22;36.42;;;9.93;;
67140;SDS011;54058;52.010;5.546;2022-10-31T04:58:48;14.40;;;8.13;;
67140;SDS011;54058;52.010;5.546;2022-10-31T05:01:13;36.83;;;9.98;;
67140;SDS011;54058;52.010;5.546;2022-10-31T05:03:39;36.63;;;9.43;;
67140;SDS011;54058;52.010;5.546;2022-10-31T05:06:05;31.17;;;9.88;;
67140;SDS011;54058;52.010;5.546;2022-10-31T05:08:31;21.63;;;9.57;;
67140;SDS011;54058;52.010;5.546;2022-10-31T05:11:00;38.80;;;10.77;;
67140;SDS011;54058;52.010;5.546;2022-10-31T05:13:27;32.85;;;9.60;;
67140;SDS011;54058;52.010;5.546;2022-10-31T05:15:53;27.77;;;8.73;;
67140;SDS011;54058;52.010;5.546;2022-10-31T05:18:18;30.23;;;8.90;;
67140;SDS011;54058;52.010;5.546;2022-10-31T05:20:44;19.15;;;9.88;;
67140;SDS011;54058;52.010;5.546;2022-10-31T05:23:10;20.25;;;9.38;;
67140;SDS011;54058;52.010;5.546;2022-10-31T05:25:35;19.52;;;9.80;;
67140;SDS011;54058;52.010;5.546;2022-10-31T05:28:01;17.58;;;8.80;;
67140;SDS011;54058;52.010;5.546;2022-10-31T05:30:28;17.63;;;9.77;;
67140;SDS011;54058;52.010;5.546;2022-10-31T05:32:56;15.80;;;9.60;;
67140;SDS011;54058;52.010;5.546;2022-10-31T05:35:23;18.10;;;9.75;;
67140;SDS011;54058;52.010;5.546;2022-10-31T05:37:49;37.25;;;10.77;;
67140;SDS011;54058;52.010;5.546;2022-10-31T05:40:16;19.23;;;9.68;;
67140;SDS011;54058;52.010;5.546;2022-10-31T05:42:43;65.72;;;10.25;;
67140;SDS011;54058;52.010;5.546;2022-10-31T05:45:10;28.30;;;10.30;;
67140;SDS011;54058;52.010;5.546;2022-10-31T05:47:37;18.38;;;9.50;;
67140;SDS011;54058;52.010;5.546;2022-10-31T05:50:03;21.85;;;10.00;;
67140;SDS011;54058;52.010;5.546;2022-10-31T05:52:29;17.25;;;10.40;;
67140;SDS011;54058;52.010;5.546;2022-10-31T05:54:55;19.30;;;9.38;;
67140;SDS011;54058;52.010;5.546;2022-10-31T05:57:20;24.85;;;9.60;;
67140;SDS011;54058;52.010;5.546;2022-10-31T05:59:46;21.60;;;9.93;;
67140;SDS011;54058;52.010;5.546;2022-10-31T06:02:11;17.15;;;9.23;;
67140;SDS011;54058;52.010;5.546;2022-10-31T06:04:37;13.25;;;8.93;;
67140;SDS011;54058;52.010;5.546;2022-10-31T06:07:02;16.17;;;8.50;;
67140;SDS011;54058;52.010;5.546;2022-10-31T06:09:28;14.27;;;8.88;;
67140;SDS011;54058;52.010;5.546;2022-10-31T06:11:54;24.63;;;10.70;;
67140;SDS011;54058;52.010;5.546;2022-10-31T06:14:19;20.45;;;9.70;;
67140;SDS011;54058;52.010;5.546;2022-10-31T06:16:45;23.13;;;9.90;;
67140;SDS011;54058;52.010;5.546;2022-10-31T06:19:10;23.40;;;9.55;;
67140;SDS011;54058;52.010;5.546;2022-10-31T06:21:36;23.85;;;10.55;;
67140;SDS011;54058;52.010;5.546;2022-10-31T06:24:02;14.25;;;9.77;;
67140;SDS011;54058;52.010;5.546;2022-10-31T06:26:27;26.63;;;9.43;;
67140;SDS011;54058;52.010;5.546;2022-10-31T06:28:53;18.27;;;9.88;;
67140;SDS011;54058;52.010;5.546;2022-10-31T06:31:18;14.88;;;9.65;;
67140;SDS011;54058;52.010;5.546;2022-10-31T06:33:44;26.83;;;9.55;;
67140;SDS011;54058;52.010;5.546;2022-10-31T06:36:10;13.93;;;9.38;;
67140;SDS011;54058;52.010;5.546;2022-10-31T06:38:35;23.67;;;9.57;;
67140;SDS011;54058;52.010;5.546;2022-10-31T06:41:02;24.88;;;10.15;;
67140;SDS011;54058;52.010;5.546;2022-10-31T06:43:31;16.98;;;10.00;;
67140;SDS011;54058;52.010;5.546;2022-10-31T06:45:57;16.98;;;10.05;;
67140;SDS011;54058;52.010;5.546;2022-10-31T06:48:23;19.75;;;10.25;;
67140;SDS011;54058;52.010;5.546;2022-10-31T06:50:48;21.35;;;9.80;;
67140;SDS011;54058;52.010;5.546;2022-10-31T06:53:14;16.85;;;9.68;;
67140;SDS011;54058;52.010;5.546;2022-10-31T06:55:41;17.17;;;9.77;;
67140;SDS011;54058;52.010;5.546;2022-10-31T06:58:08;16.67;;;10.37;;
67140;SDS011;54058;52.010;5.546;2022-10-31T07:00:35;14.80;;;9.50;;
67140;SDS011;54058;52.010;5.546;2022-10-31T07:03:02;15.60;;;9.65;;
67140;SDS011;54058;52.010;5.546;2022-10-31T07:05:30;14.88;;;9.10;;
67140;SDS011;54058;52.010;5.546;2022-10-31T07:08:00;19.67;;;9.30;;
67140;SDS011;54058;52.010;5.546;2022-10-31T07:10:28;17.08;;;9.32;;
67140;SDS011;54058;52.010;5.546;2022-10-31T07:12:55;20.77;;;9.02;;
67140;SDS011;54058;52.010;5.546;2022-10-31T07:15:22;14.93;;;9.00;;
67140;SDS011;54058;52.010;5.546;2022-10-31T07:17:48;13.17;;;8.73;;
67140;SDS011;54058;52.010;5.546;2022-10-31T07:20:17;18.60;;;9.40;;
67140;SDS011;54058;52.010;5.546;2022-10-31T07:22:43;15.15;;;10.05;;
67140;SDS011;54058;52.010;5.546;2022-10-31T07:25:09;14.32;;;9.32;;
67140;SDS011;54058;52.010;5.546;2022-10-31T07:27:39;12.82;;;9.02;;
67140;SDS011;54058;52.010;5.546;2022-10-31T07:30:06;12.95;;;9.00;;
67140;SDS011;54058;52.010;5.546;2022-10-31T07:32:51;17.33;;;8.55;;
67140;SDS011;54058;52.010;5.546;2022-10-31T07:35:18;17.83;;;8.60;;
67140;SDS011;54058;52.010;5.546;2022-10-31T07:37:53;14.73;;;8.67;;
67140;SDS011;54058;52.010;5.546;2022-10-31T07:40:19;22.63;;;8.90;;
67140;SDS011;54058;52.010;5.546;2022-10-31T07:42:47;12.18;;;8.77;;
67140;SDS011;54058;52.010;5.546;2022-10-31T07:45:15;36.55;;;9.27;;
67140;SDS011;54058;52.010;5.546;2022-10-31T07:47:46;12.10;;;9.07;;
67140;SDS011;54058;52.010;5.546;2022-10-31T07:50:25;14.15;;;9.23;;
67140;SDS011;54058;52.010;5.546;2022-10-31T07:53:05;15.45;;;9.88;;
67140;SDS011;54058;52.010;5.546;2022-10-31T07:55:36;14.88;;;9.82;;
67140;SDS011;54058;52.010;5.546;2022-10-31T07:58:06;14.07;;;9.45;;
67140;SDS011;54058;52.010;5.546;2022-10-31T08:00:34;17.35;;;10.20;;
67140;SDS011;54058;52.010;5.546;2022-10-31T08:03:04;18.33;;;9.93;;
67140;SDS011;54058;52.010;5.546;2022-10-31T08:05:31;14.85;;;9.57;;
67140;SDS011;54058;52.010;5.546;2022-10-31T08:07:57;15.88;;;9.70;;
67140;SDS011;54058;52.010;5.546;2022-10-31T08:10:23;16.55;;;10.15;;
67140;SDS011;54058;52.010;5.546;2022-10-31T08:12:57;14.55;;;10.73;;
67140;SDS011;54058;52.010;5.546;2022-10-31T08:15:33;20.08;;;11.10;;
67140;SDS011;54058;52.010;5.546;2022-10-31T08:18:02;17.98;;;10.43;;
67140;SDS011;54058;52.010;5.546;2022-10-31T08:20:28;16.95;;;11.75;;
67140;SDS011;54058;52.010;5.546;2022-10-31T08:22:57;18.80;;;11.32;;
67140;SDS011;54058;52.010;5.546;2022-10-31T08:25:25;18.65;;;12.02;;
67140;SDS011;54058;52.010;5.546;2022-10-31T08:27:52;18.08;;;11.88;;
67140;SDS011;54058;52.010;5.546;2022-10-31T08:30:19;16.88;;;11.18;;
67140;SDS011;54058;52.010;5.546;2022-10-31T08:32:46;17.67;;;11.50;;
67140;SDS011;54058;52.010;5.546;2022-10-31T08:35:12;29.73;;;11.93;;
67140;SDS011;54058;52.010;5.546;2022-10-31T08:37:38;21.67;;;12.23;;
67140;SDS011;54058;52.010;5.546;2022-10-31T08:40:05;22.33;;;12.02;;
67140;SDS011;54058;52.010;5.546;2022-10-31T08:42:31;26.15;;;13.20;;
67140;SDS011;54058;52.010;5.546;2022-10-31T08:44:57;25.27;;;11.88;;
67140;SDS011;54058;52.010;5.546;2022-10-31T08:47:23;20.23;;;13.88;;
67140;SDS011;54058;52.010;5.546;2022-10-31T08:49:48;22.77;;;15.25;;
67140;SDS011;54058;52.010;5.546;2022-10-31T08:52:14;26.75;;;14.80;;
67140;SDS011;54058;52.010;5.546;2022-10-31T08:54:40;25.50;;;14.50;;
67140;SDS011;54058;52.010;5.546;2022-10-31T08:57:06;23.35;;;14.48;;
67140;SDS011;54058;52.010;5.546;2022-10-31T08:59:32;25.98;;;14.50;;
67140;SDS011;54058;52.010;5.546;2022-10-31T09:01:58;29.00;;;13.57;;
67140;SDS011;54058;52.010;5.546;2022-10-31T09:04:23;21.30;;;13.07;;
67140;SDS011;54058;52.010;5.546;2022-10-31T09:06:49;20.52;;;13.35;;
67140;SDS011;54058;52.010;5.546;2022-10-31T09:09:14;25.25;;;14.98;;
67140;SDS011;54058;52.010;5.546;2022-10-31T09:11:40;29.23;;;14.98;;
67140;SDS011;54058;52.010;5.546;2022-10-31T09:14:06;23.98;;;11.38;;
67140;SDS011;54058;52.010;5.546;2022-10-31T09:16:31;21.30;;;13.05;;
67140;SDS011;54058;52.010;5.546;2022-10-31T09:18:57;29.40;;;14.40;;
67140;SDS011;54058;52.010;5.546;2022-10-31T09:21:22;20.20;;;12.40;;
67140;SDS011;54058;52.010;5.546;2022-10-31T09:23:48;26.45;;;15.50;;
67140;SDS011;54058;52.010;5.546;2022-10-31T09:26:13;25.90;;;15.45;;
67140;SDS011;54058;52.010;5.546;2022-10-31T09:28:39;27.65;;;13.73;;
67140;SDS011;54058;52.010;5.546;2022-10-31T09:31:05;25.60;;;14.13;;
67140;SDS011;54058;52.010;5.546;2022-10-31T09:33:30;30.35;;;13.45;;
67140;SDS011;54058;52.010;5.546;2022-10-31T09:35:57;26.88;;;15.23;;
67140;SDS011;54058;52.010;5.546;2022-10-31T09:38:23;25.60;;;14.05;;
67140;SDS011;54058;52.010;5.546;2022-10-31T09:40:51;24.23;;;12.80;;
67140;SDS011;54058;52.010;5.546;2022-10-31T09:46:29;20.17;;;12.23;;
67140;SDS011;54058;52.010;5.546;2022-10-31T09:51:42;23.60;;;13.65;;
67140;SDS011;54058;52.010;5.546;2022-10-31T09:54:12;19.83;;;12.98;;
67140;SDS011;54058;52.010;5.546;2022-10-31T09:56:40;26.98;;;11.95;;
67140;SDS011;54058;52.010;5.546;2022-10-31T09:59:08;20.00;;;11.82;;
67140;SDS011;54058;52.010;5.546;2022-10-31T10:04:56;20.30;;;12.35;;
67140;SDS011;54058;52.010;5.546;2022-10-31T10:10:13;19.42;;;12.32;;
67140;SDS011;54058;52.010;5.546;2022-10-31T10:26:18;25.50;;;9.98;;
67140;SDS011;54058;52.010;5.546;2022-10-31T10:28:49;17.73;;;9.63;;
67140;SDS011;54058;52.010;5.546;2022-10-31T10:31:23;22.40;;;10.30;;
67140;SDS011;54058;52.010;5.546;2022-10-31T10:36:41;19.25;;;10.65;;
67140;SDS011;54058;52.010;5.546;2022-10-31T10:39:23;16.48;;;9.55;;
67140;SDS011;54058;52.010;5.546;2022-10-31T10:41:54;23.23;;;11.57;;
67140;SDS011;54058;52.010;5.546;2022-10-31T10:44:45;20.13;;;10.32;;
67140;SDS011;54058;52.010;5.546;2022-10-31T10:47:42;16.80;;;10.82;;
67140;SDS011;54058;52.010;5.546;2022-10-31T10:50:19;20.33;;;11.48;;
67140;SDS011;54058;52.010;5.546;2022-10-31T10:53:07;23.98;;;11.13;;
67140;SDS011;54058;52.010;5.546;2022-10-31T10:58:41;22.15;;;11.48;;
67140;SDS011;54058;52.010;5.546;2022-10-31T11:01:13;31.00;;;11.63;;
67140;SDS011;54058;52.010;5.546;2022-10-31T11:03:40;19.27;;;12.25;;
67140;SDS011;54058;52.010;5.546;2022-10-31T11:06:15;27.85;;;13.02;;
67140;SDS011;54058;52.010;5.546;2022-10-31T11:08:45;25.92;;;14.25;;
67140;SDS011;54058;52.010;5.546;2022-10-31T11:13:47;28.27;;;14.15;;
67140;SDS011;54058;52.010;5.546;2022-10-31T11:18:54;32.60;;;15.60;;
67140;SDS011;54058;52.010;5.546;2022-10-31T11:21:41;27.45;;;14.90;;
67140;SDS011;54058;52.010;5.546;2022-10-31T11:26:35;22.00;;;12.38;;
67140;SDS011;54058;52.010;5.546;2022-10-31T11:29:05;30.75;;;14.40;;
67140;SDS011;54058;52.010;5.546;2022-10-31T11:31:41;30.60;;;14.23;;
67140;SDS011;54058;52.010;5.546;2022-10-31T11:34:13;37.33;;;15.15;;
67140;SDS011;54058;52.010;5.546;2022-10-31T11:36:48;33.80;;;15.73;;
67140;SDS011;54058;52.010;5.546;2022-10-31T11:39:18;34.50;;;15.88;;
67140;SDS011;54058;52.010;5.546;2022-10-31T11:41:46;37.60;;;17.40;;
67140;SDS011;54058;52.010;5.546;2022-10-31T11:47:13;29.27;;;14.77;;
67140;SDS011;54058;52.010;5.546;2022-10-31T11:49:42;39.55;;;18.20;;
67140;SDS011;54058;52.010;5.546;2022-10-31T11:52:14;31.25;;;17.90;;
67140;SDS011;54058;52.010;5.546;2022-10-31T11:54:45;39.13;;;17.15;;
67140;SDS011;54058;52.010;5.546;2022-10-31T11:57:41;45.58;;;19.05;;
67140;SDS011;54058;52.010;5.546;2022-10-31T12:00:22;38.30;;;19.33;;
67140;SDS011;54058;52.010;5.546;2022-10-31T12:06:09;40.33;;;20.17;;
67140;SDS011;54058;52.010;5.546;2022-10-31T12:08:40;38.55;;;19.00;;
67140;SDS011;54058;52.010;5.546;2022-10-31T12:13:40;39.53;;;17.73;;
67140;SDS011;54058;52.010;5.546;2022-10-31T12:16:31;42.33;;;19.38;;
67140;SDS011;54058;52.010;5.546;2022-10-31T12:27:21;40.28;;;21.23;;
67140;SDS011;54058;52.010;5.546;2022-10-31T12:35:54;42.15;;;19.85;;
67140;SDS011;54058;52.010;5.546;2022-10-31T12:44:22;47.97;;;20.55;;
67140;SDS011;54058;52.010;5.546;2022-10-31T12:49:49;43.53;;;19.95;;
67140;SDS011;54058;52.010;5.546;2022-10-31T12:58:03;37.55;;;19.00;;
67140;SDS011;54058;52.010;5.546;2022-10-31T13:00:35;45.72;;;19.85;;
67140;SDS011;54058;52.010;5.546;2022-10-31T13:03:17;35.80;;;18.70;;
67140;SDS011;54058;52.010;5.546;2022-10-31T13:05:51;50.08;;;20.77;;
67140;SDS011;54058;52.010;5.546;2022-10-31T13:09:22;40.10;;;20.92;;
67140;SDS011;54058;52.010;5.546;2022-10-31T13:11:21;42.88;;;20.27;;
67140;SDS011;54058;52.010;5.546;2022-10-31T13:13:58;40.50;;;20.80;;
67140;SDS011;54058;52.010;5.546;2022-10-31T13:16:38;41.75;;;19.42;;
67140;SDS011;54058;52.010;5.546;2022-10-31T13:19:14;43.83;;;20.58;;
67140;SDS011;54058;52.010;5.546;2022-10-31T13:24:33;36.47;;;19.42;;
67140;SDS011;54058;52.010;5.546;2022-10-31T13:27:07;36.85;;;18.73;;
67140;SDS011;54058;52.010;5.546;2022-10-31T13:30:25;41.53;;;21.05;;
67140;SDS011;54058;52.010;5.546;2022-10-31T13:32:46;52.15;;;19.63;;
67140;SDS011;54058;52.010;5.546;2022-10-31T13:38:02;48.28;;;20.00;;
67140;SDS011;54058;52.010;5.546;2022-10-31T13:43:17;50.92;;;20.77;;
67140;SDS011;54058;52.010;5.546;2022-10-31T13:45:52;44.00;;;19.52;;
67140;SDS011;54058;52.010;5.546;2022-10-31T13:51:00;41.22;;;19.15;;
67140;SDS011;54058;52.010;5.546;2022-10-31T13:56:21;45.70;;;19.73;;
67140;SDS011;54058;52.010;5.546;2022-10-31T14:01:29;37.90;;;17.75;;
67140;SDS011;54058;52.010;5.546;2022-10-31T14:04:05;41.13;;;19.40;;
67140;SDS011;54058;52.010;5.546;2022-10-31T14:12:25;40.15;;;18.27;;
67140;SDS011;54058;52.010;5.546;2022-10-31T14:15:12;47.17;;;18.92;;
67140;SDS011;54058;52.010;5.546;2022-10-31T14:17:57;36.50;;;18.38;;
67140;SDS011;54058;52.010;5.546;2022-10-31T14:20:40;32.05;;;15.93;;
67140;SDS011;54058;52.010;5.546;2022-10-31T14:26:06;39.85;;;18.45;;
67140;SDS011;54058;52.010;5.546;2022-10-31T14:28:44;40.92;;;18.08;;
67140;SDS011;54058;52.010;5.546;2022-10-31T14:31:27;40.15;;;18.23;;
67140;SDS011;54058;52.010;5.546;2022-10-31T14:34:53;41.15;;;18.70;;
67140;SDS011;54058;52.010;5.546;2022-10-31T14:45:23;39.78;;;17.98;;
67140;SDS011;54058;52.010;5.546;2022-10-31T14:47:55;37.80;;;16.90;;
67140;SDS011;54058;52.010;5.546;2022-10-31T14:53:36;45.65;;;18.20;;
67140;SDS011;54058;52.010;5.546;2022-10-31T14:56:09;44.42;;;17.08;;
67140;SDS011;54058;52.010;5.546;2022-10-31T14:58:39;39.42;;;16.95;;
67140;SDS011;54058;52.010;5.546;2022-10-31T15:01:15;45.58;;;17.65;;
67140;SDS011;54058;52.010;5.546;2022-10-31T15:03:46;35.55;;;16.40;;
67140;SDS011;54058;52.010;5.546;2022-10-31T15:06:16;37.15;;;17.77;;
67140;SDS011;54058;52.010;5.546;2022-10-31T15:08:45;45.85;;;16.88;;
67140;SDS011;54058;52.010;5.546;2022-10-31T15:11:19;32.30;;;16.50;;
67140;SDS011;54058;52.010;5.546;2022-10-31T15:13:48;42.20;;;17.33;;
67140;SDS011;54058;52.010;5.546;2022-10-31T15:16:19;44.15;;;17.20;;
67140;SDS011;54058;52.010;5.546;2022-10-31T15:18:56;39.47;;;17.92;;
67140;SDS011;54058;52.010;5.546;2022-10-31T15:21:25;41.05;;;16.77;;
67140;SDS011;54058;52.010;5.546;2022-10-31T15:23:56;44.63;;;18.15;;
67140;SDS011;54058;52.010;5.546;2022-10-31T15:26:26;45.30;;;18.40;;
67140;SDS011;54058;52.010;5.546;2022-10-31T15:29:04;43.47;;;19.45;;
67140;SDS011;54058;52.010;5.546;2022-10-31T15:31:31;39.85;;;18.02;;
67140;SDS011;54058;52.010;5.546;2022-10-31T15:33:59;36.55;;;16.90;;
67140;SDS011;54058;52.010;5.546;2022-10-31T15:36:31;41.20;;;17.85;;
67140;SDS011;54058;52.010;5.546;2022-10-31T15:38:57;38.70;;;17.73;;
67140;SDS011;54058;52.010;5.546;2022-10-31T15:41:38;47.40;;;18.10;;
67140;SDS011;54058;52.010;5.546;2022-10-31T15:44:14;47.63;;;18.23;;
67140;SDS011;54058;52.010;5.546;2022-10-31T15:46:44;43.08;;;20.75;;
67140;SDS011;54058;52.010;5.546;2022-10-31T15:49:40;40.15;;;18.52;;
67140;SDS011;54058;52.010;5.546;2022-10-31T15:52:15;63.15;;;29.17;;
67140;SDS011;54058;52.010;5.546;2022-10-31T15:54:51;53.83;;;21.67;;
67140;SDS011;54058;52.010;5.546;2022-10-31T15:57:20;48.78;;;23.30;;
67140;SDS011;54058;52.010;5.546;2022-10-31T16:02:14;47.03;;;23.05;;
67140;SDS011;54058;52.010;5.546;2022-10-31T16:04:52;43.85;;;19.23;;
67140;SDS011;54058;52.010;5.546;2022-10-31T16:07:20;39.22;;;17.80;;
67140;SDS011;54058;52.010;5.546;2022-10-31T16:12:25;37.33;;;17.65;;
67140;SDS011;54058;52.010;5.546;2022-10-31T16:15:12;45.78;;;19.02;;
67140;SDS011;54058;52.010;5.546;2022-10-31T16:17:40;39.72;;;18.05;;
67140;SDS011;54058;52.010;5.546;2022-10-31T16:20:20;41.78;;;21.63;;
67140;SDS011;54058;52.010;5.546;2022-10-31T16:22:50;44.20;;;23.75;;
67140;SDS011;54058;52.010;5.546;2022-10-31T16:25:24;45.47;;;21.52;;
67140;SDS011;54058;52.010;5.546;2022-10-31T16:27:52;56.65;;;29.45;;
67140;SDS011;54058;52.010;5.546;2022-10-31T16:33:04;51.88;;;21.52;;
67140;SDS011;54058;52.010;5.546;2022-10-31T16:35:49;42.55;;;20.02;;
67140;SDS011;54058;52.010;5.546;2022-10-31T16:38:15;38.78;;;19.98;;
67140;SDS011;54058;52.010;5.546;2022-10-31T16:40:40;46.05;;;20.00;;
67140;SDS011;54058;52.010;5.546;2022-10-31T16:43:13;42.55;;;20.52;;
67140;SDS011;54058;52.010;5.546;2022-10-31T16:45:49;44.83;;;19.98;;
67140;SDS011;54058;52.010;5.546;2022-10-31T16:48:19;48.42;;;19.73;;
67140;SDS011;54058;52.010;5.546;2022-10-31T16:50:48;40.25;;;19.05;;
67140;SDS011;54058;52.010;5.546;2022-10-31T16:53:15;39.33;;;18.65;;
67140;SDS011;54058;52.010;5.546;2022-10-31T16:55:46;40.80;;;19.90;;
67140;SDS011;54058;52.010;5.546;2022-10-31T16:58:26;36.75;;;18.02;;
67140;SDS011;54058;52.010;5.546;2022-10-31T17:00:54;39.55;;;18.55;;
67140;SDS011;54058;52.010;5.546;2022-10-31T17:03:21;46.33;;;19.73;;
67140;SDS011;54058;52.010;5.546;2022-10-31T17:05:47;45.22;;;18.52;;
67140;SDS011;54058;52.010;5.546;2022-10-31T17:08:12;39.15;;;18.00;;
67140;SDS011;54058;52.010;5.546;2022-10-31T17:10:38;42.35;;;18.95;;
67140;SDS011;54058;52.010;5.546;2022-10-31T17:13:06;47.90;;;19.20;;
67140;SDS011;54058;52.010;5.546;2022-10-31T17:15:40;33.15;;;17.17;;